createdAt,value
2023-04-22T00:00:15.455Z,7.50
2023-04-22T00:02:44.560Z,7.50
2023-04-22T00:05:16.645Z,7.60
2023-04-22T00:07:48.285Z,7.60
2023-04-22T00:10:16.999Z,7.60
2023-04-22T00:12:45.470Z,7.60
2023-04-22T00:15:15.060Z,7.60
2023-04-22T00:17:46.023Z,7.60
2023-04-22T00:20:15.133Z,7.60
2023-04-22T00:22:43.708Z,7.60
2023-04-22T00:25:12.140Z,7.60
2023-04-22T00:27:40.575Z,7.60
2023-04-22T00:30:10.027Z,7.60
2023-04-22T00:32:39.746Z,7.60
2023-04-22T00:35:08.926Z,7.60
2023-04-22T00:37:37.678Z,7.60
2023-04-22T00:40:07.549Z,7.50
2023-04-22T00:42:36.185Z,7.50
2023-04-22T00:45:04.671Z,7.50
2023-04-22T00:47:34.095Z,7.40
2023-04-22T00:50:04.516Z,7.50
2023-04-22T00:52:33.168Z,7.40
2023-04-22T00:55:01.741Z,7.40
2023-04-22T00:57:31.853Z,7.40
2023-04-22T01:00:00.392Z,7.40
2023-04-22T01:02:29.823Z,7.40
2023-04-22T01:04:58.460Z,7.40
2023-04-22T01:07:28.184Z,7.40
2023-04-22T01:09:56.616Z,7.30
2023-04-22T01:12:25.033Z,7.40
2023-04-22T01:14:53.546Z,7.40
2023-04-22T01:17:24.850Z,7.30
2023-04-22T01:19:55.661Z,7.40
2023-04-22T01:22:27.368Z,7.40
2023-04-22T01:24:57.340Z,7.40
2023-04-22T01:27:26.406Z,7.40
2023-04-22T01:29:55.074Z,7.40
2023-04-22T01:32:23.764Z,7.30
2023-04-22T01:34:52.550Z,7.30
2023-04-22T01:37:21.162Z,7.30
2023-04-22T01:39:50.094Z,7.30
2023-04-22T01:42:20.335Z,7.30
2023-04-22T01:44:49.098Z,7.30
2023-04-22T01:47:17.746Z,7.20
2023-04-22T01:49:46.150Z,7.30
2023-04-22T01:52:14.818Z,7.30
2023-04-22T01:54:43.234Z,7.30
2023-04-22T01:57:14.260Z,7.30
2023-04-22T01:59:44.094Z,7.20
2023-04-22T02:02:12.629Z,7.20
2023-04-22T02:04:41.105Z,7.20
2023-04-22T02:07:09.884Z,7.20
2023-04-22T02:09:38.556Z,7.20
2023-04-22T02:12:07.390Z,7.30
2023-04-22T02:14:35.824Z,7.30
2023-04-22T02:17:05.925Z,7.30
2023-04-22T02:19:34.413Z,7.40
2023-04-22T02:22:03.030Z,7.30
2023-04-22T02:24:31.546Z,7.30
2023-04-22T02:27:00.401Z,7.30
2023-04-22T02:29:28.937Z,7.20
2023-04-22T02:31:57.475Z,7.20
2023-04-22T02:34:27.481Z,7.20
2023-04-22T02:36:55.998Z,7.20
2023-04-22T02:39:24.386Z,7.20
2023-04-22T02:41:52.853Z,7.20
2023-04-22T02:44:21.254Z,7.10
2023-04-22T02:46:50.247Z,7.10
2023-04-22T02:49:18.855Z,7.20
2023-04-22T02:51:48.430Z,7.20
2023-04-22T02:54:16.864Z,7.10
2023-04-22T02:56:45.102Z,7.10
2023-04-22T02:59:13.492Z,7.10
2023-04-22T03:01:41.996Z,7.10
2023-04-22T03:04:12.228Z,7.00
2023-04-22T03:06:40.812Z,7.10
2023-04-22T03:09:10.529Z,7.00
2023-04-22T03:11:38.994Z,7.00
2023-04-22T03:14:07.474Z,7.00
2023-04-22T03:16:35.844Z,7.00
2023-04-22T03:19:04.378Z,7.00
2023-04-22T03:21:33.357Z,7.00
2023-04-22T03:24:01.780Z,7.00
2023-04-22T03:26:31.815Z,7.00
2023-04-22T03:29:00.263Z,7.00
2023-04-22T03:31:28.668Z,7.10
2023-04-22T03:33:57.065Z,7.00
2023-04-22T03:36:25.658Z,7.00
2023-04-22T03:38:53.964Z,7.00
2023-04-22T03:41:23.508Z,7.10
2023-04-22T03:43:53.098Z,7.00
2023-04-22T03:46:22.059Z,7.00
2023-04-22T03:48:50.576Z,7.00
2023-04-22T03:51:18.981Z,7.00
2023-04-22T03:53:47.255Z,7.00
2023-04-22T03:56:15.666Z,6.90
2023-04-22T03:58:44.071Z,7.00
2023-04-22T04:01:13.836Z,7.00
2023-04-22T04:03:42.439Z,7.00
2023-04-22T04:06:10.998Z,7.00
2023-04-22T04:08:39.841Z,7.00
2023-04-22T04:11:09.520Z,6.90
2023-04-22T04:13:38.027Z,7.00
2023-04-22T04:16:07.137Z,7.00
2023-04-22T04:18:36.886Z,6.90
2023-04-22T04:21:05.654Z,6.90
2023-04-22T04:23:34.137Z,7.00
2023-04-22T04:26:05.830Z,7.00
2023-04-22T04:28:36.066Z,7.00
2023-04-22T04:31:04.717Z,7.10
2023-04-22T04:33:33.187Z,7.10
2023-04-22T04:36:03.106Z,7.10
2023-04-22T04:38:31.456Z,7.10
2023-04-22T04:40:59.999Z,7.10
2023-04-22T04:43:29.453Z,7.10
2023-04-22T04:45:57.851Z,7.00
2023-04-22T04:48:27.208Z,7.10
2023-04-22T04:50:55.766Z,7.10
2023-04-22T04:53:25.528Z,7.10
2023-04-22T04:55:54.335Z,7.20
2023-04-22T04:58:22.715Z,7.20
2023-04-22T05:00:51.193Z,7.10
2023-04-22T05:03:19.818Z,7.20
2023-04-22T05:05:49.467Z,7.20
2023-04-22T05:08:17.804Z,7.20
2023-04-22T05:10:47.397Z,7.30
2023-04-22T05:13:15.875Z,7.30
2023-04-22T05:15:44.478Z,7.30
2023-04-22T05:18:12.915Z,7.40
2023-04-22T05:20:41.245Z,7.40
2023-04-22T05:23:09.787Z,7.40
2023-04-22T05:25:38.196Z,7.40
2023-04-22T05:28:08.170Z,7.40
2023-04-22T05:30:36.521Z,7.50
2023-04-22T05:33:04.937Z,7.50
2023-04-22T05:35:33.319Z,7.50
2023-04-22T05:38:01.803Z,7.50
2023-04-22T05:40:30.174Z,7.60
2023-04-22T05:42:58.980Z,7.70
2023-04-22T05:45:28.664Z,7.70
2023-04-22T05:47:57.212Z,7.70
2023-04-22T05:50:25.863Z,7.80
2023-04-22T05:52:54.295Z,7.80
2023-04-22T05:55:22.707Z,7.80
2023-04-22T05:57:51.626Z,7.80
2023-04-22T06:00:20.279Z,7.90
2023-04-22T06:02:50.165Z,7.90
2023-04-22T06:05:18.853Z,7.90
2023-04-22T06:07:47.753Z,7.90
2023-04-22T06:10:16.209Z,7.90
2023-04-22T06:12:44.686Z,7.90
2023-04-22T06:15:13.165Z,7.80
2023-04-22T06:17:41.667Z,7.80
2023-04-22T06:20:13.011Z,7.80
2023-04-22T06:22:41.464Z,7.90
2023-04-22T06:25:10.522Z,7.90
2023-04-22T06:27:39.192Z,7.90
2023-04-22T06:30:09.446Z,7.90
2023-04-22T06:32:37.967Z,7.90
2023-04-22T06:35:06.887Z,7.90
2023-04-22T06:37:36.850Z,7.90
2023-04-22T06:40:05.627Z,7.90
2023-04-22T06:42:34.058Z,7.90
2023-04-22T06:45:02.532Z,7.90
2023-04-22T06:47:31.446Z,8.00
2023-04-22T06:49:59.863Z,8.00
2023-04-22T06:52:28.293Z,8.00
2023-04-22T06:54:57.910Z,8.10
2023-04-22T06:57:26.385Z,8.10
2023-04-22T06:59:54.746Z,8.10
2023-04-22T07:02:23.393Z,8.10
2023-04-22T07:04:52.082Z,8.20
2023-04-22T07:07:20.505Z,8.20
2023-04-22T07:09:49.008Z,8.20
2023-04-22T07:12:18.888Z,8.40
2023-04-22T07:14:47.797Z,8.40
2023-04-22T07:17:19.314Z,8.40
2023-04-22T07:19:47.848Z,8.50
2023-04-22T07:22:16.346Z,8.60
2023-04-22T07:24:44.774Z,8.70
2023-04-22T07:27:13.527Z,8.70
2023-04-22T07:29:43.196Z,8.70
2023-04-22T07:32:11.880Z,8.80
2023-04-22T07:34:40.435Z,8.80
2023-04-22T07:37:09.563Z,8.90
2023-04-22T07:39:38.193Z,8.90
2023-04-22T07:42:07.330Z,9.00
2023-04-22T07:44:37.576Z,9.00
2023-04-22T07:47:08.872Z,9.10
2023-04-22T07:49:37.374Z,9.10
2023-04-22T07:52:06.009Z,9.20
2023-04-22T07:54:34.366Z,9.10
2023-04-22T07:57:03.060Z,9.20
2023-04-22T07:59:31.492Z,9.20
2023-04-22T08:01:59.935Z,9.10
2023-04-22T08:04:29.905Z,9.20
2023-04-22T08:06:59.052Z,9.30
2023-04-22T08:09:27.476Z,9.40
2023-04-22T08:11:56.633Z,9.40
2023-04-22T08:14:25.598Z,9.50
2023-04-22T08:16:54.218Z,9.50
2023-04-22T08:19:22.762Z,9.50
2023-04-22T08:21:52.468Z,9.60
2023-04-22T08:24:21.080Z,9.50
2023-04-22T08:26:49.572Z,9.50
2023-04-22T08:29:18.019Z,9.50
2023-04-22T08:31:46.471Z,9.50
2023-04-22T08:34:15.099Z,9.60
2023-04-22T08:36:44.000Z,9.60
2023-04-22T08:39:13.958Z,9.70
2023-04-22T08:41:45.228Z,9.70
2023-04-22T08:44:14.622Z,9.70
2023-04-22T08:46:46.897Z,9.80
2023-04-22T08:49:16.829Z,9.80
2023-04-22T08:51:46.136Z,9.90
2023-04-22T08:54:16.284Z,9.90
2023-04-22T08:56:46.856Z,9.90
2023-04-22T08:59:15.099Z,9.90
2023-04-22T09:01:44.364Z,9.80
2023-04-22T09:04:15.852Z,9.90
2023-04-22T09:06:44.510Z,9.80
2023-04-22T09:09:13.056Z,9.80
2023-04-22T09:11:42.864Z,9.90
2023-04-22T09:14:12.751Z,9.90
2023-04-22T09:16:44.009Z,9.80
2023-04-22T09:19:13.988Z,9.90
2023-04-22T09:21:42.852Z,9.90
2023-04-22T09:24:12.982Z,9.80
2023-04-22T09:26:44.234Z,9.70
2023-04-22T09:29:16.546Z,9.80
2023-04-22T09:31:49.789Z,9.80
2023-04-22T09:34:18.143Z,9.90
2023-04-22T09:36:47.171Z,9.80
2023-04-22T09:39:15.790Z,9.90
2023-04-22T09:41:45.588Z,9.90
2023-04-22T09:44:18.086Z,9.90
2023-04-22T09:46:46.726Z,9.80
2023-04-22T09:49:17.781Z,9.80
2023-04-22T09:51:46.333Z,9.90
2023-04-22T09:54:15.646Z,10.00
2023-04-22T09:56:52.982Z,10.00
2023-04-22T09:59:23.165Z,10.10
2023-04-22T10:01:53.307Z,10.10
2023-04-22T10:04:23.499Z,10.20
2023-04-22T10:06:52.581Z,10.30
2023-04-22T10:09:23.138Z,10.30
2023-04-22T10:11:54.931Z,10.50
2023-04-22T10:14:23.849Z,10.50
2023-04-22T10:16:55.328Z,10.40
2023-04-22T10:19:25.230Z,10.40
2023-04-22T10:21:56.897Z,10.30
2023-04-22T10:24:28.182Z,10.40
2023-04-22T10:26:59.762Z,10.50
2023-04-22T10:29:36.092Z,11.10
2023-04-22T10:32:08.463Z,10.70
2023-04-22T10:34:39.963Z,10.60
2023-04-22T10:37:11.708Z,10.60
2023-04-22T10:39:41.273Z,10.50
2023-04-22T10:42:13.202Z,10.50
2023-04-22T10:44:50.473Z,10.50
2023-04-22T10:47:37.086Z,10.40
2023-04-22T10:50:22.737Z,10.30
2023-04-22T10:52:53.130Z,10.30
2023-04-22T10:55:21.830Z,10.30
2023-04-22T10:57:52.888Z,10.30
2023-04-22T11:00:53.269Z,10.40
2023-04-22T11:03:28.299Z,10.30
2023-04-22T11:06:15.111Z,10.30
2023-04-22T11:08:46.894Z,10.30
2023-04-22T11:11:15.270Z,10.30
2023-04-22T11:13:45.596Z,10.40
2023-04-22T11:16:14.096Z,10.30
2023-04-22T11:18:42.659Z,10.40
2023-04-22T11:21:11.323Z,10.40
2023-04-22T11:23:39.851Z,10.40
2023-04-22T11:26:08.368Z,10.50
2023-04-22T11:28:46.369Z,10.50
2023-04-22T11:31:16.442Z,10.60
2023-04-22T11:33:45.344Z,10.60
2023-04-22T11:36:13.904Z,10.50
2023-04-22T11:38:42.382Z,10.60
2023-04-22T11:41:10.751Z,10.70
2023-04-22T11:43:47.907Z,10.70
2023-04-22T11:46:18.124Z,10.70
2023-04-22T11:48:47.861Z,10.80
2023-04-22T11:51:16.161Z,10.80
2023-04-22T11:53:51.935Z,10.80
2023-04-22T11:56:22.445Z,10.80
2023-04-22T11:58:50.810Z,10.90
2023-04-22T12:01:20.587Z,10.90
2023-04-22T12:03:50.484Z,10.80
2023-04-22T12:06:19.058Z,10.90
2023-04-22T12:08:49.865Z,10.90
2023-04-22T12:11:18.481Z,10.90
2023-04-22T12:13:47.473Z,11.00
2023-04-22T12:16:16.832Z,11.10
2023-04-22T12:18:52.352Z,11.10
2023-04-22T12:21:23.594Z,11.10
2023-04-22T12:23:53.990Z,11.30
2023-04-22T12:26:26.672Z,11.00
2023-04-22T12:28:56.826Z,11.20
2023-04-22T12:31:25.897Z,11.20
2023-04-22T12:33:56.138Z,11.20
2023-04-22T12:36:25.366Z,11.20
2023-04-22T12:38:53.888Z,11.20
2023-04-22T12:41:23.007Z,11.30
2023-04-22T12:43:52.751Z,11.40
2023-04-22T12:46:21.429Z,11.30
2023-04-22T12:48:50.209Z,11.30
2023-04-22T12:51:20.048Z,11.30
2023-04-22T12:53:48.470Z,11.30
2023-04-22T12:56:16.959Z,11.20
2023-04-22T12:58:45.377Z,11.20
2023-04-22T13:01:13.895Z,11.40
2023-04-22T13:03:42.555Z,11.40
2023-04-22T13:06:11.326Z,11.50
2023-04-22T13:08:41.145Z,11.50
2023-04-22T13:11:09.929Z,11.60
2023-04-22T13:13:38.372Z,11.50
2023-04-22T13:16:06.948Z,11.50
2023-04-22T13:18:35.466Z,11.60
2023-04-22T13:21:03.908Z,11.60
2023-04-22T13:23:32.637Z,11.60
2023-04-22T13:26:02.630Z,11.70
2023-04-22T13:28:31.392Z,11.70
2023-04-22T13:30:59.916Z,11.70
2023-04-22T13:33:28.388Z,11.80
2023-04-22T13:35:56.849Z,11.80
2023-04-22T13:38:25.322Z,11.80
2023-04-22T13:40:53.691Z,11.70
2023-04-22T13:43:23.297Z,11.80
2023-04-22T13:45:51.872Z,11.80
2023-04-22T13:48:20.423Z,12.00
2023-04-22T13:50:48.873Z,12.00
2023-04-22T13:53:17.400Z,11.90
2023-04-22T13:55:45.920Z,12.00
2023-04-22T13:58:14.719Z,12.10
2023-04-22T14:00:44.311Z,12.10
2023-04-22T14:03:12.948Z,12.10
2023-04-22T14:05:41.652Z,11.90
2023-04-22T14:08:10.492Z,11.80
2023-04-22T14:10:38.932Z,11.90
2023-04-22T14:13:07.428Z,12.10
2023-04-22T14:15:35.925Z,12.40
2023-04-22T14:18:05.768Z,12.20
2023-04-22T14:20:34.208Z,12.10
2023-04-22T14:23:05.150Z,12.20
2023-04-22T14:25:33.724Z,12.10
2023-04-22T14:28:02.199Z,12.40
2023-04-22T14:30:30.956Z,12.40
2023-04-22T14:33:00.497Z,12.60
2023-04-22T14:35:30.287Z,12.50
2023-04-22T14:37:58.709Z,12.70
2023-04-22T14:40:28.416Z,12.70
2023-04-22T14:42:57.400Z,12.80
2023-04-22T14:45:27.189Z,12.90
2023-04-22T14:47:56.291Z,13.00
2023-04-22T14:50:25.502Z,13.20
2023-04-22T14:52:55.366Z,13.10
2023-04-22T14:55:24.319Z,13.20
2023-04-22T14:57:56.675Z,13.10
2023-04-22T15:00:25.598Z,13.40
2023-04-22T15:02:54.704Z,13.40
2023-04-22T15:05:23.692Z,13.40
2023-04-22T15:07:52.137Z,13.60
2023-04-22T15:10:22.100Z,13.50
2023-04-22T15:12:50.536Z,13.30
2023-04-22T15:15:18.893Z,13.40
2023-04-22T15:17:47.660Z,13.30
2023-04-22T15:20:16.382Z,13.20
2023-04-22T15:22:45.667Z,13.30
2023-04-22T15:25:16.027Z,13.40
2023-04-22T15:27:48.047Z,13.50
2023-04-22T15:30:16.726Z,13.60
2023-04-22T15:32:45.380Z,13.70
2023-04-22T15:35:14.215Z,13.60
2023-04-22T15:37:42.676Z,13.50
2023-04-22T15:40:11.287Z,13.50
2023-04-22T15:42:39.680Z,13.50
2023-04-22T15:45:10.356Z,13.50
2023-04-22T15:47:38.908Z,13.60
2023-04-22T15:50:09.227Z,13.60
2023-04-22T15:52:39.004Z,13.80
2023-04-22T15:55:08.611Z,13.70
2023-04-22T15:57:37.251Z,14.00
2023-04-22T16:00:11.938Z,14.20
2023-04-22T16:02:43.538Z,14.10
2023-04-22T16:05:14.047Z,14.00
2023-04-22T16:07:43.017Z,14.00
2023-04-22T16:10:12.052Z,14.00
2023-04-22T16:12:40.429Z,14.10
2023-04-22T16:15:10.652Z,14.10
2023-04-22T16:17:39.372Z,14.10
2023-04-22T16:20:11.009Z,14.10
2023-04-22T16:22:39.408Z,14.20
2023-04-22T16:25:09.163Z,14.30
2023-04-22T16:27:37.643Z,14.30
2023-04-22T16:30:07.385Z,14.30
2023-04-22T16:32:35.863Z,14.30
2023-04-22T16:35:04.461Z,14.30
2023-04-22T16:37:35.315Z,14.60
2023-04-22T16:40:04.715Z,14.80
2023-04-22T16:42:33.023Z,14.80
2023-04-22T16:45:01.516Z,14.70
2023-04-22T16:47:30.387Z,14.80
2023-04-22T16:49:58.980Z,14.60
2023-04-22T16:52:27.403Z,14.70
2023-04-22T16:54:57.288Z,14.70
2023-04-22T16:57:25.715Z,14.80
2023-04-22T16:59:54.252Z,14.80
2023-04-22T17:02:22.880Z,14.80
2023-04-22T17:04:51.634Z,14.70
2023-04-22T17:07:20.202Z,14.80
2023-04-22T17:09:48.943Z,14.80
2023-04-22T17:12:19.028Z,14.80
2023-04-22T17:14:47.454Z,14.80
2023-04-22T17:17:16.009Z,14.80
2023-04-22T17:19:44.842Z,14.80
2023-04-22T17:22:13.277Z,14.80
2023-04-22T17:24:41.792Z,14.70
2023-04-22T17:27:10.788Z,14.70
2023-04-22T17:29:40.849Z,14.60
2023-04-22T17:32:09.383Z,14.60
2023-04-22T17:34:38.176Z,14.50
2023-04-22T17:37:06.755Z,14.50
2023-04-22T17:39:35.191Z,14.50
2023-04-22T17:42:04.208Z,14.50
2023-04-22T17:44:32.822Z,14.40
2023-04-22T17:47:03.954Z,14.40
2023-04-22T17:49:33.603Z,14.50
2023-04-22T17:52:02.110Z,14.40
2023-04-22T17:54:30.636Z,14.30
2023-04-22T17:56:59.013Z,14.30
2023-04-22T17:59:27.398Z,14.30
2023-04-22T18:01:55.905Z,14.30
2023-04-22T18:04:26.280Z,14.20
2023-04-22T18:06:54.920Z,14.10
2023-04-22T18:09:23.301Z,14.10
2023-04-22T18:11:51.974Z,14.10
2023-04-22T18:14:21.584Z,14.00
2023-04-22T18:16:50.222Z,13.90
2023-04-22T18:19:18.773Z,13.90
2023-04-22T18:21:59.483Z,13.80
2023-04-22T18:24:28.972Z,13.70
2023-04-22T18:26:57.477Z,13.70
2023-04-22T18:29:26.022Z,13.60
2023-04-22T18:31:54.550Z,13.60
2023-04-22T18:34:23.044Z,13.50
2023-04-22T18:36:52.887Z,13.40
2023-04-22T18:39:21.360Z,13.30
2023-04-22T18:41:50.014Z,13.30
2023-04-22T18:44:18.511Z,13.30
2023-04-22T18:46:47.364Z,13.20
2023-04-22T18:49:15.934Z,13.20
2023-04-22T18:51:46.804Z,13.20
2023-04-22T18:54:17.001Z,13.10
2023-04-22T18:56:46.114Z,13.10
2023-04-22T18:59:14.672Z,13.00
2023-04-22T19:01:43.264Z,13.00
2023-04-22T19:04:12.517Z,13.00
2023-04-22T19:06:41.533Z,12.90
2023-04-22T19:09:10.274Z,12.90
2023-04-22T19:11:40.171Z,12.90
2023-04-22T19:14:08.708Z,12.90
2023-04-22T19:16:37.131Z,12.80
2023-04-22T19:19:05.509Z,12.80
2023-04-22T19:21:33.925Z,12.80
2023-04-22T19:24:02.513Z,12.80
2023-04-22T19:26:32.286Z,12.70
2023-04-22T19:29:01.954Z,12.80
2023-04-22T19:31:30.953Z,12.80
2023-04-22T19:34:02.504Z,12.80
2023-04-22T19:36:31.768Z,12.70
2023-04-22T19:39:00.208Z,12.70
2023-04-22T19:41:28.662Z,12.70
2023-04-22T19:43:59.038Z,12.60
2023-04-22T19:46:28.792Z,12.60
2023-04-22T19:48:57.659Z,12.60
2023-04-22T19:51:27.170Z,12.50
2023-04-22T19:53:56.281Z,12.50
2023-04-22T19:56:25.453Z,12.50
2023-04-22T19:58:54.126Z,12.40
2023-04-22T20:01:22.805Z,12.40
2023-04-22T20:03:53.498Z,12.40
2023-04-22T20:06:23.366Z,12.40
2023-04-22T20:08:54.288Z,12.40
2023-04-22T20:11:23.318Z,12.30
2023-04-22T20:13:51.843Z,12.30
2023-04-22T20:16:20.916Z,12.30
2023-04-22T20:18:50.640Z,12.20
2023-04-22T20:21:20.921Z,12.30
2023-04-22T20:23:51.108Z,12.20
2023-04-22T20:26:20.142Z,12.30
2023-04-22T20:28:52.069Z,12.20
2023-04-22T20:31:23.135Z,12.20
2023-04-22T20:33:51.930Z,12.10
2023-04-22T20:36:22.564Z,12.10
2023-04-22T20:38:52.168Z,12.10
2023-04-22T20:41:20.881Z,12.20
2023-04-22T20:43:49.486Z,12.20
2023-04-22T20:46:18.843Z,12.10
2023-04-22T20:48:48.734Z,12.00
2023-04-22T20:51:17.527Z,12.20
2023-04-22T20:53:47.106Z,12.10
2023-04-22T20:56:15.809Z,12.50
2023-04-22T20:58:44.361Z,12.40
2023-04-22T21:01:16.487Z,12.20
2023-04-22T21:03:51.694Z,12.10
2023-04-22T21:06:21.893Z,12.10
2023-04-22T21:08:52.160Z,12.10
2023-04-22T21:11:20.891Z,12.00
2023-04-22T21:13:50.042Z,12.10
2023-04-22T21:16:20.651Z,12.50
2023-04-22T21:18:49.966Z,12.30
2023-04-22T21:21:20.598Z,12.20
2023-04-22T21:23:49.425Z,12.50
2023-04-22T21:26:19.722Z,12.40
2023-04-22T21:28:49.804Z,12.40
2023-04-22T21:31:18.503Z,12.30
2023-04-22T21:33:47.053Z,12.40
2023-04-22T21:36:15.538Z,12.40
2023-04-22T21:38:44.014Z,12.40
2023-04-22T21:41:12.668Z,12.30
2023-04-22T21:43:42.492Z,12.30
2023-04-22T21:46:11.104Z,12.50
2023-04-22T21:48:39.571Z,12.50
2023-04-22T21:51:07.849Z,12.40
2023-04-22T21:53:36.276Z,12.30
2023-04-22T21:56:04.690Z,12.20
2023-04-22T21:58:33.163Z,12.10
2023-04-22T22:01:02.702Z,12.00
2023-04-22T22:03:31.586Z,12.10
2023-04-22T22:06:00.101Z,12.00
2023-04-22T22:08:28.946Z,12.20
2023-04-22T22:10:57.938Z,12.20
2023-04-22T22:13:26.413Z,12.30
2023-04-22T22:15:57.280Z,12.20
2023-04-22T22:18:27.180Z,12.20
2023-04-22T22:20:55.798Z,12.20
2023-04-22T22:23:25.043Z,12.20
2023-04-22T22:25:53.411Z,12.20
2023-04-22T22:28:21.839Z,12.30
2023-04-22T22:30:50.277Z,12.40
2023-04-22T22:33:18.801Z,12.20
2023-04-22T22:35:48.357Z,12.20
2023-04-22T22:38:16.830Z,12.30
2023-04-22T22:40:45.289Z,12.30
2023-04-22T22:43:14.408Z,12.30
2023-04-22T22:45:42.954Z,12.30
2023-04-22T22:48:11.724Z,12.40
2023-04-22T22:50:40.243Z,12.40
2023-04-22T22:53:09.901Z,12.30
2023-04-22T22:55:38.263Z,12.30
2023-04-22T22:58:06.665Z,12.30
2023-04-22T23:00:35.143Z,12.30
2023-04-22T23:03:03.509Z,12.30
2023-04-22T23:05:32.203Z,12.30
2023-04-22T23:08:00.910Z,12.40
2023-04-22T23:10:30.863Z,12.50
2023-04-22T23:12:59.070Z,12.50
2023-04-22T23:15:27.531Z,12.50
2023-04-22T23:17:56.087Z,12.60
2023-04-22T23:20:25.571Z,13.00
2023-04-22T23:22:55.509Z,13.20
2023-04-22T23:25:24.589Z,12.80
2023-04-22T23:27:54.816Z,13.10
2023-04-22T23:30:23.976Z,13.00
2023-04-22T23:32:52.968Z,12.90
2023-04-22T23:35:22.202Z,13.10
2023-04-22T23:37:53.072Z,12.70
2023-04-22T23:40:21.684Z,12.70
2023-04-22T23:42:50.004Z,13.20
2023-04-22T23:45:19.705Z,12.70
2023-04-22T23:47:48.073Z,12.50
2023-04-22T23:50:19.103Z,12.40
2023-04-22T23:52:47.605Z,12.30
2023-04-22T23:55:16.914Z,12.20
2023-04-22T23:57:45.717Z,12.10
